Time;durP1;ratioP1;P1;durP2;ratioP2;P2;SDS_P1;SDS_P2;PMS_P1;PMS_P2;Temp;Humidity;BMP_temperature;BMP_pressure;BME280_temperature;BME280_humidity;BME280_pressure;Samples;Min_cycle;Max_cycle;Signal;HPM_P1;HPM_P2
2022/12/22 05:18:12;;;;;;;11.53;8.83;;;11.90;99.90;;;;;;4770713;30;20198;-92
2022/12/22 05:27:21;;;;;;;10.93;8.93;;;12.10;99.90;;;;;;4852663;29;20175;-92
2022/12/22 05:29:52;;;;;;;12.60;10.13;;;12.20;99.90;;;;;;4929600;29;20186;-89
2022/12/22 05:33:06;;;;;;;15.47;10.50;;;12.30;99.90;;;;;;4959420;29;20174;-89
2022/12/22 05:53:12;;;;;;;18.10;11.27;;;11.70;99.90;;;;;;4848656;29;20245;-94
2022/12/22 05:55:38;;;;;;;22.80;12.93;;;11.50;99.90;;;;;;4867027;29;20231;-93
2022/12/22 05:58:23;;;;;;;21.93;13.63;;;11.50;99.90;;;;;;4885175;29;20180;-93
2022/12/22 06:05:08;;;;;;;;;;;;;;;;;;;;;
2022/12/22 06:08:33;;;;;;;28.90;17.23;;;11.60;99.90;;;;;;4900015;29;20256;-94
2022/12/22 06:19:19;;;;;;;33.50;18.57;;;11.70;99.90;;;;;;4932080;29;20191;-93
2022/12/22 06:26:06;;;;;;;;;;;;;;;;;;;;;
2022/12/22 06:32:27;;;;;;;;;;;;;;;;;;;;;
2022/12/22 06:38:35;;;;;;;28.53;19.43;;;11.60;99.90;;;;;;4976404;28;20187;-93
2022/12/22 06:44:53;;;;;;;26.70;19.10;;;11.70;99.90;;;;;;5021084;28;20254;-92
2022/12/22 06:48:11;;;;;;;;;;;;;;;;;;;;;
2022/12/22 06:54:02;;;;;;;32.30;21.23;;;11.60;99.90;;;;;;4979385;28;20628;-92
2022/12/22 07:00:32;;;;;;;45.57;27.37;;;11.50;99.90;;;;;;5019641;28;20210;-86
2022/12/22 07:03:04;;;;;;;40.30;26.20;;;11.30;99.90;;;;;;5020550;28;20285;-92
2022/12/22 07:22:32;;;;;;;31.10;22.47;;;11.00;99.90;;;;;;5035839;28;20291;-90
2022/12/22 07:25:52;;;;;;;33.50;23.07;;;11.10;99.90;;;;;;5017811;28;20203;-91
2022/12/22 07:45:47;;;;;;;31.73;20.93;;;11.20;99.90;;;;;;5035480;28;20553;-91
2022/12/22 07:55:43;;;;;;;37.10;24.27;;;11.20;99.90;;;;;;4971508;28;20306;-90
2022/12/22 07:58:09;;;;;;;40.37;26.87;;;11.20;99.90;;;;;;4958366;28;20192;-89
2022/12/22 08:00:47;;;;;;;43.07;27.97;;;11.20;99.90;;;;;;5024098;28;20193;-91
2022/12/22 08:07:05;;;;;;;42.20;27.17;;;11.00;99.90;;;;;;5059059;28;20208;-90
2022/12/22 08:10:17;;;;;;;35.17;21.80;;;11.00;99.90;;;;;;5054854;28;20185;-91
2022/12/22 08:13:13;;;;;;;37.30;22.73;;;11.00;99.90;;;;;;5051492;28;20194;-90
2022/12/22 08:16:08;;;;;;;36.93;24.60;;;11.00;99.90;;;;;;5037269;28;20213;-91
2022/12/22 08:19:06;;;;;;;40.57;26.07;;;10.90;99.90;;;;;;5034391;28;20193;-91
2022/12/22 08:22:28;;;;;;;67.93;36.57;;;10.80;99.90;;;;;;4988573;28;20177;-91
2022/12/22 08:25:31;;;;;;;39.90;26.13;;;10.80;99.90;;;;;;5041776;28;20204;-91
2022/12/22 08:28:25;;;;;;;40.90;25.33;;;10.70;99.90;;;;;;5049796;28;20264;-91
2022/12/22 08:38:00;;;;;;;39.10;25.97;;;10.70;99.90;;;;;;5037462;28;20172;-90
2022/12/22 08:41:09;;;;;;;;;;;;;;;;;;;;;
2022/12/22 08:43:49;;;;;;;48.93;31.77;;;10.70;99.90;;;;;;5038544;28;20304;-92
2022/12/22 08:46:50;;;;;;;46.07;28.03;;;10.70;99.90;;;;;;5031023;28;20199;-90
2022/12/22 08:49:22;;;;;;;69.03;38.37;;;10.80;99.90;;;;;;5028277;28;20242;-91
2022/12/22 08:52:26;;;;;;;39.60;24.40;;;10.80;99.90;;;;;;5018527;28;20169;-89
2022/12/22 08:55:09;;;;;;;33.63;22.27;;;10.80;99.90;;;;;;5033875;28;20282;-90
2022/12/22 08:58:08;;;;;;;;;;;;;;;;;;;;;
2022/12/22 09:00:55;;;;;;;30.37;19.57;;;10.80;99.90;;;;;;5039653;28;20261;-92
2022/12/22 09:04:11;;;;;;;29.03;18.50;;;10.80;99.90;;;;;;5021226;28;20181;-92
2022/12/22 09:07:37;;;;;;;23.87;16.07;;;10.80;99.90;;;;;;5011189;28;20179;-93
2022/12/22 09:24:32;;;;;;;30.17;17.70;;;10.70;99.90;;;;;;4885888;29;20254;-92
2022/12/22 09:31:32;;;;;;;19.57;15.00;;;10.70;99.90;;;;;;4778677;30;20209;-93
2022/12/22 09:38:12;;;;;;;24.47;15.73;;;10.80;99.90;;;;;;4881525;29;20188;-93
2022/12/22 09:48:12;;;;;;;25.90;17.07;;;10.80;99.90;;;;;;4874696;29;20210;-91
2022/12/22 09:54:20;;;;;;;26.30;18.87;;;10.80;99.90;;;;;;4956799;29;20191;-91
2022/12/22 09:57:51;;;;;;;;;;;;;;;;;;;;;
2022/12/22 10:00:57;;;;;;;27.10;20.97;;;10.60;99.90;;;;;;4967905;28;20373;-91
2022/12/22 10:04:07;;;;;;;28.20;20.87;;;10.50;99.90;;;;;;4962425;28;20214;-91
2022/12/22 10:07:18;;;;;;;33.57;23.93;;;10.60;99.90;;;;;;5005862;28;20233;-91
2022/12/22 10:10:45;;;;;;;30.70;22.73;;;10.70;99.90;;;;;;4950524;28;20199;-90
2022/12/22 10:21:11;;;;;;;19.93;16.50;;;10.20;99.90;;;;;;4957464;28;20398;-90
2022/12/22 10:24:47;;;;;;;23.10;18.53;;;10.10;99.90;;;;;;4918003;29;20220;-90
2022/12/22 10:55:59;;;;;;;13.27;9.20;;;10.10;99.90;;;;;;4825595;29;20233;-90
2022/12/22 10:59:22;;;;;;;;;;;;;;;;;;;;;
2022/12/22 11:09:01;;;;;;;13.17;10.40;;;10.40;99.90;;;;;;4783218;29;20955;-90
2022/12/22 11:35:59;;;;;;;;;;;;;;;;;;;;;
2022/12/22 11:42:45;;;;;;;7.77;5.80;;;10.90;99.90;;;;;;5021505;28;20174;-91
2022/12/22 11:52:54;;;;;;;8.23;4.30;;;10.90;99.90;;;;;;5030257;28;20222;-91
2022/12/22 11:59:08;;;;;;;7.80;4.80;;;10.80;99.90;;;;;;4967817;28;20177;-90
2022/12/22 12:02:39;;;;;;;;;;;;;;;;;;;;;
2022/12/22 12:05:58;;;;;;;11.53;4.67;;;10.80;99.90;;;;;;5019202;28;20273;-90
2022/12/22 12:12:53;;;;;;;7.77;4.77;;;10.80;99.90;;;;;;5016352;28;20174;-92
2022/12/22 12:16:10;;;;;;;6.83;4.47;;;10.80;99.90;;;;;;5030315;28;20284;-91
2022/12/22 12:23:26;;;;;;;;;;;;;;;;;;;;;
2022/12/22 12:30:12;;;;;;;8.97;4.93;;;11.00;99.90;;;;;;4968732;28;20206;-91
2022/12/22 12:40:33;;;;;;;7.70;6.90;;;11.10;99.90;;;;;;4964956;29;20199;-91
2022/12/22 12:50:45;;;;;;;;;;;;;;;;;;;;;
2022/12/22 12:54:13;;;;;;;6.03;3.60;;;11.10;99.90;;;;;;4789251;29;20378;-91
2022/12/22 12:57:28;;;;;;;5.90;3.37;;;11.10;99.90;;;;;;4754631;30;20258;-90
2022/12/22 13:00:52;;;;;;;4.77;2.77;;;11.10;99.90;;;;;;4898171;29;20176;-90
2022/12/22 13:03:42;;;;;;;5.10;3.47;;;11.10;99.90;;;;;;5047644;28;20209;-91
2022/12/22 13:06:33;;;;;;;4.73;3.77;;;11.10;99.90;;;;;;5033348;28;20228;-89
2022/12/22 13:09:34;;;;;;;5.83;3.50;;;11.10;99.90;;;;;;5031104;28;20187;-90
2022/12/22 13:16:40;;;;;;;4.30;3.23;;;10.90;99.90;;;;;;5041867;28;20236;-89
2022/12/22 13:19:26;;;;;;;6.13;3.03;;;10.90;99.90;;;;;;5034716;28;20259;-90
2022/12/22 13:22:12;;;;;;;6.20;3.20;;;10.80;99.90;;;;;;5023668;28;20185;-91
2022/12/22 13:25:01;;;;;;;6.30;3.07;;;10.90;99.90;;;;;;5033467;28;20185;-91
2022/12/22 13:28:14;;;;;;;4.50;3.40;;;10.90;99.90;;;;;;5043415;28;20187;-91
2022/12/22 13:31:08;;;;;;;4.37;3.10;;;10.90;99.90;;;;;;5022232;28;20186;-90
2022/12/22 13:38:21;;;;;;;7.83;3.83;;;10.90;99.90;;;;;;4942517;29;20275;-92
2022/12/22 13:44:44;;;;;;;5.90;3.73;;;10.90;99.90;;;;;;4898700;29;20724;-90
2022/12/22 13:47:39;;;;;;;8.27;4.30;;;10.80;99.90;;;;;;4916097;28;20209;-90
2022/12/22 13:54:16;;;;;;;8.37;4.83;;;10.90;99.90;;;;;;4956976;28;20213;-91
2022/12/22 13:57:28;;;;;;;10.07;7.60;;;10.90;99.90;;;;;;4941866;29;20293;-90
2022/12/22 14:00:54;;;;;;;;;;;;;;;;;;;;;
2022/12/22 14:14:00;;;;;;;12.03;6.40;;;11.00;99.90;;;;;;4962811;28;20271;-91
2022/12/22 14:17:32;;;;;;;;;;;;;;;;;;;;;
2022/12/22 14:27:58;;;;;;;;;;;;;;;;;;;;;
2022/12/22 14:38:04;;;;;;;;;;;;;;;;;;;;;
2022/12/22 14:45:00;;;;;;;;;;;;;;;;;;;;;
2022/12/22 14:48:33;;;;;;;15.70;7.20;;;11.30;99.90;;;;;;4750553;30;20305;-90
2022/12/22 14:51:42;;;;;;;20.43;7.63;;;11.40;99.90;;;;;;4747057;29;20313;-89
2022/12/22 14:55:16;;;;;;;;;;;;;;;;;;;;;
2022/12/22 14:58:31;;;;;;;;;;;;;;;;;;;;;
2022/12/22 15:01:30;;;;;;;21.30;7.20;;;11.50;99.90;;;;;;4943213;29;20253;-88
2022/12/22 15:05:01;;;;;;;21.10;7.33;;;11.50;99.90;;;;;;4948642;29;20190;-89
2022/12/22 15:08:24;;;;;;;;;;;;;;;;;;;;;
2022/12/22 15:11:56;;;;;;;;;;;;;;;;;;;;;
2022/12/22 15:15:08;;;;;;;;;;;;;;;;;;;;;
2022/12/22 15:25:56;;;;;;;32.67;9.03;;;11.60;99.90;;;;;;4773166;30;20194;-91
2022/12/22 15:47:26;;;;;;;40.10;10.73;;;11.80;99.90;;;;;;4756255;30;20622;-89
2022/12/22 16:31:38;;;;;;;42.87;11.07;;;11.80;99.90;;;;;;4964295;28;20319;-91
2022/12/22 16:34:28;;;;;;;50.63;11.07;;;11.80;99.90;;;;;;4942127;29;20224;-90
2022/12/22 16:37:31;;;;;;;47.43;11.97;;;11.80;99.90;;;;;;4942196;29;20263;-91
2022/12/22 16:41:02;;;;;;;47.80;11.60;;;11.80;99.90;;;;;;5010690;28;20189;-90
2022/12/22 16:44:04;;;;;;;49.33;11.43;;;11.90;99.90;;;;;;4940588;28;20180;-90
2022/12/22 16:47:45;;;;;;;41.73;9.97;;;11.90;99.90;;;;;;4938522;29;20332;-90
2022/12/22 16:54:18;;;;;;;45.67;10.87;;;12.00;99.90;;;;;;4827179;29;20245;-89
2022/12/22 16:57:34;;;;;;;42.37;10.27;;;11.90;99.90;;;;;;4825376;29;20290;-90
2022/12/22 17:00:33;;;;;;;43.13;10.00;;;12.00;99.90;;;;;;4825232;29;20211;-90
2022/12/22 17:06:24;;;;;;;37.90;10.70;;;12.00;99.90;;;;;;4844068;29;20254;-89
2022/12/22 17:09:14;;;;;;;38.87;9.50;;;12.10;99.90;;;;;;4865507;29;20198;-91
2022/12/22 17:11:40;;;;;;;40.37;10.27;;;12.10;99.90;;;;;;4918550;29;20308;-90
2022/12/22 17:14:40;;;;;;;44.63;9.70;;;12.20;99.90;;;;;;4944503;29;20204;-89
2022/12/22 17:21:00;;;;;;;41.93;9.47;;;12.20;99.90;;;;;;5007057;28;20193;-90
2022/12/22 17:23:42;;;;;;;36.13;8.90;;;12.10;99.90;;;;;;5018608;28;20209;-90
2022/12/22 17:26:31;;;;;;;37.93;8.63;;;12.10;99.90;;;;;;5039788;28;20321;-90
2022/12/22 17:28:58;;;;;;;31.93;8.73;;;12.10;99.90;;;;;;5030420;28;20226;-89
2022/12/22 17:31:28;;;;;;;34.40;8.90;;;12.20;99.90;;;;;;5026039;28;20185;-91
2022/12/22 17:34:29;;;;;;;27.87;7.40;;;12.10;99.90;;;;;;5024497;28;20545;-90
2022/12/22 17:37:26;;;;;;;34.23;8.70;;;12.10;99.90;;;;;;5040868;28;20250;-92
2022/12/22 17:40:27;;;;;;;33.13;7.57;;;12.10;99.90;;;;;;5028908;28;20190;-91
2022/12/22 17:43:26;;;;;;;31.70;8.37;;;12.20;99.90;;;;;;5025937;28;20736;-90
2022/12/22 17:49:29;;;;;;;30.57;7.70;;;12.00;99.90;;;;;;5069270;28;20184;-90
2022/12/22 17:53:00;;;;;;;;;;;;;;;;;;;;;
2022/12/22 17:56:27;;;;;;;26.27;6.67;;;12.20;99.90;;;;;;4988065;28;20289;-90
2022/12/22 18:02:40;;;;;;;;;;;;;;;;;;;;;
2022/12/22 18:05:37;;;;;;;24.30;6.57;;;12.10;99.90;;;;;;4933230;29;20245;-89
2022/12/22 18:08:28;;;;;;;24.40;7.17;;;12.00;99.90;;;;;;5015805;28;20181;-91
2022/12/22 18:11:10;;;;;;;27.40;6.77;;;12.00;99.90;;;;;;5020378;28;20206;-90
2022/12/22 18:14:35;;;;;;;26.50;7.07;;;12.00;99.90;;;;;;5042228;28;20178;-90
2022/12/22 18:17:02;;;;;;;28.27;7.13;;;12.10;99.90;;;;;;4991979;28;20206;-90
2022/12/22 18:19:58;;;;;;;26.23;7.30;;;12.00;99.90;;;;;;5036450;28;20198;-90
2022/12/22 18:23:04;;;;;;;27.23;6.67;;;12.10;99.90;;;;;;5055174;28;20180;-91
2022/12/22 18:26:21;;;;;;;25.30;7.30;;;12.10;99.90;;;;;;5043956;28;20235;-92
2022/12/22 18:33:06;;;;;;;27.53;7.33;;;12.10;99.90;;;;;;4932098;29;20288;-89
2022/12/22 18:36:13;;;;;;;;;;;;;;;;;;;;;
2022/12/22 18:39:06;;;;;;;25.03;6.10;;;12.10;99.90;;;;;;4907753;29;20224;-89
2022/12/22 18:41:48;;;;;;;23.47;6.20;;;12.10;99.90;;;;;;4912826;29;20197;-89
2022/12/22 18:45:07;;;;;;;20.47;5.93;;;12.10;99.90;;;;;;4905060;29;20171;-89
2022/12/22 18:47:40;;;;;;;21.57;6.73;;;12.00;99.90;;;;;;4921455;29;20186;-89
2022/12/22 18:50:51;;;;;;;21.27;6.30;;;12.00;99.90;;;;;;5024220;28;20199;-88
2022/12/22 18:53:37;;;;;;;20.97;5.97;;;12.00;99.90;;;;;;5045699;28;20189;-91
2022/12/22 18:56:09;;;;;;;21.60;6.47;;;11.90;99.90;;;;;;5043429;28;20217;-87
2022/12/22 18:58:53;;;;;;;18.80;5.63;;;11.90;99.90;;;;;;5023452;28;20185;-89
2022/12/22 19:01:30;;;;;;;20.00;6.30;;;12.00;99.90;;;;;;5027551;28;20284;-89
2022/12/22 19:04:06;;;;;;;21.33;7.10;;;12.00;99.90;;;;;;5035585;28;20192;-89
2022/12/22 19:06:36;;;;;;;21.23;6.03;;;12.00;99.90;;;;;;5048923;28;20178;-89
2022/12/22 19:09:41;;;;;;;25.23;6.50;;;12.10;99.90;;;;;;5045676;28;20182;-89
2022/12/22 19:12:26;;;;;;;21.53;6.17;;;12.10;99.90;;;;;;5025811;28;20182;-88
2022/12/22 19:15:29;;;;;;;21.20;5.67;;;12.10;99.90;;;;;;5040268;28;20212;-89
2022/12/22 19:18:07;;;;;;;16.53;5.47;;;12.00;99.90;;;;;;5022783;28;20269;-90
2022/12/22 19:20:34;;;;;;;19.30;6.00;;;11.90;99.90;;;;;;5022212;28;20181;-89
2022/12/22 19:23:20;;;;;;;13.80;4.93;;;12.00;99.90;;;;;;5022661;28;20219;-88
2022/12/22 19:26:03;;;;;;;17.70;6.33;;;11.90;99.90;;;;;;5041386;28;20187;-90
2022/12/22 19:29:08;;;;;;;21.33;6.47;;;11.80;99.90;;;;;;5023056;28;20235;-90
2022/12/22 19:31:52;;;;;;;20.63;6.60;;;11.80;99.90;;;;;;5022517;28;20197;-90
2022/12/22 19:34:33;;;;;;;15.37;5.83;;;11.90;99.90;;;;;;5040564;28;20177;-91
2022/12/22 19:37:25;;;;;;;17.50;6.03;;;11.80;99.90;;;;;;5030940;28;20186;-90
2022/12/22 19:40:05;;;;;;;20.67;6.07;;;11.90;99.90;;;;;;5029485;28;20204;-90
2022/12/22 19:42:48;;;;;;;19.77;6.03;;;11.90;99.90;;;;;;5052974;28;20206;-88
2022/12/22 19:45:46;;;;;;;18.30;6.27;;;11.90;99.90;;;;;;5039830;28;20209;-88
2022/12/22 19:48:24;;;;;;;18.23;6.43;;;11.80;99.90;;;;;;5048390;28;20192;-88
2022/12/22 19:53:59;;;;;;;16.87;6.03;;;11.90;99.90;;;;;;5041551;28;20180;-86
2022/12/22 19:56:41;;;;;;;20.23;6.57;;;11.80;99.90;;;;;;5039929;28;20223;-88
2022/12/22 19:59:47;;;;;;;17.83;5.77;;;12.00;99.90;;;;;;5026623;28;20668;-88
2022/12/22 20:02:40;;;;;;;16.23;5.60;;;11.90;99.90;;;;;;5033140;28;20181;-88
2022/12/22 20:05:33;;;;;;;16.73;6.87;;;12.10;99.90;;;;;;5040544;28;20186;-89
2022/12/22 20:08:24;;;;;;;18.73;5.80;;;12.10;99.90;;;;;;5036555;28;20276;-87
2022/12/22 20:11:05;;;;;;;17.80;6.27;;;12.20;99.90;;;;;;5040125;28;20346;-87
2022/12/22 20:13:54;;;;;;;14.17;5.70;;;12.10;99.90;;;;;;5022077;28;20216;-87
2022/12/22 20:16:25;;;;;;;15.50;5.47;;;12.10;99.90;;;;;;5032133;28;20248;-87
2022/12/22 20:18:53;;;;;;;16.87;5.60;;;12.00;99.90;;;;;;5041182;28;20216;-89
2022/12/22 20:22:33;;;;;;;21.53;5.50;;;12.00;99.90;;;;;;5045110;28;20211;-92
2022/12/22 20:24:59;;;;;;;18.27;6.83;;;12.10;99.90;;;;;;5037281;28;20200;-91
2022/12/22 20:27:33;;;;;;;16.60;5.60;;;11.90;99.90;;;;;;5044688;28;20281;-88
2022/12/22 20:30:14;;;;;;;16.77;6.00;;;11.80;99.90;;;;;;5022383;28;20184;-90
2022/12/22 20:32:57;;;;;;;15.83;5.43;;;11.70;99.90;;;;;;5003395;28;20190;-91
2022/12/22 20:35:55;;;;;;;17.83;5.73;;;11.70;99.90;;;;;;5033867;28;20214;-90
2022/12/22 20:39:09;;;;;;;14.53;5.90;;;11.70;99.90;;;;;;5025585;28;20197;-90
2022/12/22 20:41:50;;;;;;;16.63;6.23;;;11.80;99.90;;;;;;5036869;28;20587;-89
2022/12/22 20:44:31;;;;;;;16.37;6.17;;;11.90;99.90;;;;;;5021678;28;20593;-88
2022/12/22 20:47:20;;;;;;;14.43;6.20;;;12.00;99.90;;;;;;5043529;28;20645;-90
2022/12/22 20:49:56;;;;;;;21.07;6.43;;;11.90;99.90;;;;;;5022568;28;20556;-89
2022/12/22 20:52:36;;;;;;;16.20;5.80;;;11.80;99.90;;;;;;5031387;28;20206;-90
2022/12/22 20:55:05;;;;;;;17.73;6.20;;;11.90;99.90;;;;;;5021747;28;20295;-89
2022/12/22 20:57:44;;;;;;;17.80;6.90;;;11.90;99.90;;;;;;5033041;28;20193;-90
2022/12/22 21:01:33;;;;;;;15.57;6.17;;;12.00;99.90;;;;;;5053365;28;20168;-89
2022/12/22 21:04:27;;;;;;;17.60;6.43;;;11.80;99.90;;;;;;5265373;23;20243;-91
2022/12/22 21:07:10;;;;;;;18.57;6.80;;;11.80;99.90;;;;;;5031038;28;20202;-90
2022/12/22 21:13:34;;;;;;;13.47;6.03;;;11.80;99.90;;;;;;4926931;29;20179;-91
2022/12/22 21:16:33;;;;;;;;;;;;;;;;;;;;;
2022/12/22 21:19:03;;;;;;;12.80;5.37;;;11.70;99.90;;;;;;5043228;28;20259;-91
2022/12/22 21:21:48;;;;;;;13.93;5.27;;;11.80;99.90;;;;;;5051694;28;20181;-92
2022/12/22 21:24:38;;;;;;;15.67;5.60;;;11.80;99.90;;;;;;5041248;28;20197;-91
2022/12/22 21:27:19;;;;;;;14.27;6.00;;;11.80;99.90;;;;;;5037881;28;20191;-89
2022/12/22 21:29:52;;;;;;;11.83;6.20;;;11.80;99.90;;;;;;5023427;28;20268;-88
2022/12/22 21:32:56;;;;;;;12.77;6.07;;;11.90;99.90;;;;;;5003286;28;20193;-90
2022/12/22 21:35:39;;;;;;;13.30;5.93;;;11.80;99.90;;;;;;4947161;28;20226;-91
2022/12/22 21:38:26;;;;;;;15.60;6.47;;;12.00;99.90;;;;;;5037648;28;20179;-89
2022/12/22 21:41:13;;;;;;;12.23;5.90;;;12.00;99.90;;;;;;5040046;28;20187;-89
2022/12/22 21:44:12;;;;;;;;;;;;;;;;;;;;;
2022/12/22 21:47:30;;;;;;;14.67;5.97;;;11.90;99.90;;;;;;5046997;28;20221;-89
2022/12/22 21:50:28;;;;;;;15.03;6.67;;;12.10;99.90;;;;;;5024433;28;20179;-89
2022/12/22 21:53:38;;;;;;;13.93;6.47;;;11.90;99.90;;;;;;5045584;28;20203;-90
2022/12/22 21:56:29;;;;;;;13.13;6.50;;;12.00;99.90;;;;;;5027977;28;20256;-88
2022/12/22 21:59:14;;;;;;;14.97;6.47;;;11.90;99.90;;;;;;5041892;28;20269;-91
2022/12/22 22:02:12;;;;;;;12.00;6.27;;;11.90;99.90;;;;;;5037459;28;20186;-91
2022/12/22 22:05:17;;;;;;;14.70;6.40;;;11.90;99.90;;;;;;5022690;28;20188;-90
2022/12/22 22:08:24;;;;;;;13.37;5.93;;;12.00;99.90;;;;;;5036513;28;20296;-91
2022/12/22 22:12:31;;;;;;;13.70;6.57;;;11.80;99.90;;;;;;5020625;28;20179;-90
2022/12/22 22:14:54;;;;;;;15.87;6.77;;;11.90;99.90;;;;;;5038333;28;20254;-90
2022/12/22 22:17:42;;;;;;;16.70;7.17;;;12.00;99.90;;;;;;5026109;28;20237;-91
2022/12/22 22:20:49;;;;;;;17.97;8.23;;;12.10;99.90;;;;;;5025922;28;20185;-90
2022/12/22 22:23:25;;;;;;;15.70;7.60;;;12.00;99.90;;;;;;5040037;28;20190;-91
2022/12/22 22:26:25;;;;;;;18.80;7.93;;;12.00;99.90;;;;;;5038411;28;20634;-90
2022/12/22 22:29:14;;;;;;;17.23;7.70;;;12.00;99.90;;;;;;5023430;28;20209;-91
2022/12/22 22:32:01;;;;;;;15.73;7.87;;;11.90;99.90;;;;;;5011381;28;20259;-91
2022/12/22 22:34:33;;;;;;;16.67;8.53;;;11.90;99.90;;;;;;5024524;28;20275;-91
2022/12/22 22:37:28;;;;;;;;;;;;;;;;;;;;;
2022/12/22 22:40:35;;;;;;;22.23;9.43;;;11.90;99.90;;;;;;5024495;28;20285;-90
2022/12/22 22:46:10;;;;;;;19.77;9.77;;;11.90;99.90;;;;;;4945292;29;20193;-91
2022/12/22 22:48:52;;;;;;;23.87;10.23;;;11.90;99.90;;;;;;4992780;28;20202;-90
2022/12/22 22:51:52;;;;;;;21.73;10.47;;;11.90;99.90;;;;;;5040699;28;20209;-90
2022/12/22 22:54:25;;;;;;;20.67;10.93;;;11.90;99.90;;;;;;5053260;28;20212;-89
2022/12/22 22:57:09;;;;;;;22.43;10.70;;;11.90;99.90;;;;;;5044390;28;20208;-89
2022/12/22 22:59:59;;;;;;;24.30;10.83;;;11.90;99.90;;;;;;5045233;28;20182;-90
2022/12/22 23:02:32;;;;;;;20.53;10.93;;;11.70;99.90;;;;;;5058105;28;20206;-90
2022/12/22 23:05:20;;;;;;;;;;;;;;;;;;;;;
2022/12/22 23:07:46;;;;;;;24.83;12.33;;;11.90;99.90;;;;;;5064506;28;20376;-89
2022/12/22 23:10:33;;;;;;;21.17;11.27;;;11.90;99.90;;;;;;5048793;28;20185;-89
2022/12/22 23:13:03;;;;;;;22.50;11.63;;;11.90;99.90;;;;;;5062084;28;20185;-89
2022/12/22 23:15:50;;;;;;;22.53;11.80;;;11.80;99.90;;;;;;5049893;28;20214;-88
2022/12/22 23:18:38;;;;;;;21.90;11.20;;;11.90;99.90;;;;;;5067949;28;20192;-89
2022/12/22 23:21:17;;;;;;;22.90;10.93;;;11.90;99.90;;;;;;5043245;28;20720;-89
2022/12/22 23:24:14;;;;;;;20.50;10.60;;;11.80;99.90;;;;;;5042920;28;20271;-88
2022/12/22 23:27:06;;;;;;;16.60;9.93;;;11.90;99.90;;;;;;5044175;28;20180;-88
2022/12/22 23:29:39;;;;;;;18.63;10.30;;;11.80;99.90;;;;;;5046028;28;20182;-88
2022/12/22 23:32:25;;;;;;;20.03;11.60;;;11.80;99.90;;;;;;5042367;28;20252;-88
2022/12/22 23:35:03;;;;;;;15.43;9.23;;;11.80;99.90;;;;;;5017094;28;20186;-89
2022/12/22 23:37:33;;;;;;;22.27;10.13;;;11.80;99.90;;;;;;5042036;28;20188;-88
2022/12/22 23:40:38;;;;;;;16.07;9.63;;;11.90;99.90;;;;;;5058064;28;20219;-89
2022/12/22 23:43:21;;;;;;;19.97;9.63;;;11.90;99.90;;;;;;5041284;28;20203;-89
2022/12/22 23:46:33;;;;;;;18.13;8.80;;;11.80;99.90;;;;;;5038805;28;20184;-92
2022/12/22 23:49:30;;;;;;;15.77;8.80;;;11.80;99.90;;;;;;5062966;28;20185;-90
2022/12/22 23:52:21;;;;;;;17.73;8.83;;;11.80;99.90;;;;;;5052569;28;20202;-91
2022/12/22 23:54:53;;;;;;;16.33;8.13;;;11.80;99.90;;;;;;5041795;28;20208;-91
2022/12/22 23:57:22;;;;;;;19.33;7.73;;;11.80;99.90;;;;;;5043002;28;20186;-91
